Map

Track Data

SID SEASON NUMBER BASIN SUBBASIN NAME ISO_TIME NATURE LAT LON WMO_WIND WMO_PRES WMO_AGENCY TRACK_TYPE DIST2LAND LANDFALL IFLAG USA_AGENCY USA_ATCF_ID USA_LAT USA_LON USA_RECORD USA_STATUS USA_WIND USA_PRES USA_SSHS USA_R34_NE USA_R34_SE USA_R34_SW USA_R34_NW USA_R50_NE USA_R50_SE USA_R50_SW USA_R50_NW USA_R64_NE USA_R64_SE USA_R64_SW USA_R64_NW USA_POCI USA_ROCI USA_RMW USA_EYE TOKYO_LAT TOKYO_LON TOKYO_GRADE TOKYO_WIND TOKYO_PRES TOKYO_R50_DIR TOKYO_R50_LONG TOKYO_R50_SHORT TOKYO_R30_DIR TOKYO_R30_LONG TOKYO_R30_SHORT TOKYO_LAND CMA_LAT CMA_LON CMA_CAT CMA_WIND CMA_PRES HKO_LAT HKO_LON HKO_CAT HKO_WIND HKO_PRES NEWDELHI_LAT NEWDELHI_LON NEWDELHI_GRADE NEWDELHI_WIND NEWDELHI_PRES NEWDELHI_CI NEWDELHI_DP NEWDELHI_POCI REUNION_LAT REUNION_LON REUNION_TYPE REUNION_WIND REUNION_PRES REUNION_TNUM REUNION_CI REUNION_RMW REUNION_R34_NE REUNION_R34_SE REUNION_R34_SW REUNION_R34_NW REUNION_R50_NE REUNION_R50_SE REUNION_R50_SW REUNION_R50_NW REUNION_R64_NE REUNION_R64_SE REUNION_R64_SW REUNION_R64_NW BOM_LAT BOM_LON BOM_TYPE BOM_WIND BOM_PRES BOM_TNUM BOM_CI BOM_RMW BOM_R34_NE BOM_R34_SE BOM_R34_SW BOM_R34_NW BOM_R50_NE BOM_R50_SE BOM_R50_SW BOM_R50_NW BOM_R64_NE BOM_R64_SE BOM_R64_SW BOM_R64_NW BOM_ROCI BOM_POCI BOM_EYE BOM_POS_METHOD BOM_PRES_METHOD NADI_LAT NADI_LON NADI_CAT NADI_WIND NADI_PRES WELLINGTON_LAT WELLINGTON_LON WELLINGTON_WIND WELLINGTON_PRES DS824_LAT DS824_LON DS824_STAGE DS824_WIND DS824_PRES TD9636_LAT TD9636_LON TD9636_STAGE TD9636_WIND TD9636_PRES TD9635_LAT TD9635_LON TD9635_WIND TD9635_PRES TD9635_ROCI NEUMANN_LAT NEUMANN_LON NEUMANN_CLASS NEUMANN_WIND NEUMANN_PRES MLC_LAT MLC_LON MLC_CLASS MLC_WIND MLC_PRES USA_GUST BOM_GUST BOM_GUST_PER REUNION_GUST REUNION_GUST_PER USA_SEAHGT USA_SEARAD_NE USA_SEARAD_SE USA_SEARAD_SW USA_SEARAD_NW STORM_SPEED STORM_DIR
1972129S06156 1972 34 SP EA HANNAH 1972-05-07 23:00:00 NR -5.70000 155.500 1004 bom main 35 24 ______O___O___ -1 -5.70000 155.500 1004 -5.70000 155.500 1 3 8 205
1972129S06156 1972 34 SP EA HANNAH 1972-05-08 00:00:00 TS -5.81898 155.451 main 24 0 O_____P_OOP_O_ jtwc_sh SH301972 -5.80000 155.400 5 -1 -5.83926 155.408 1003 -6.00000 155.600 30 997 -5.80000 155.400 TC 20 1004 -5.79616 155.371 1 -5.70000 155.700 TC 20 1004 9 219
1972129S06156 1972 34 SP EA HANNAH 1972-05-08 02:00:00 TS -6.04265 155.219 1002 bom main 0 0 P_____O_PPP_P_ SH301972 -6.00600 155.131 5 -1 -6.10000 155.200 1002 -6.18357 155.353 31 995 -6.05706 155.183 TC 23 1002 -5.98768 155.113 1 -5.95706 155.483 TC 21 1002 10 227
1972129S06156 1972 34 SP EA HANNAH 1972-05-08 03:00:00 TS -6.14914 155.097 main 0 0 P_____P_PPP_P_ SH301972 -6.10757 154.998 5 -1 -6.21333 155.075 1001 -6.27353 155.229 32 995 -6.18002 155.070 TC 25 1002 -6.08267 154.983 1 -6.08002 155.370 TC 22 1002 10 231
1972129S06156 1972 34 SP EA HANNAH 1972-05-08 05:00:00 TS -6.34773 154.846 1001 bom main 24 24 P_____O_PPP_P_ SH301972 -6.30512 154.732 5 -1 -6.40000 154.800 1001 -6.44625 154.975 34 994 -6.40371 154.830 TC 28 1001 -6.27019 154.720 1 -6.30371 155.130 TC 24 1001 10 233
1972129S06156 1972 34 SP EA HANNAH 1972-05-08 06:00:00 TS -6.43778 154.715 main 40 40 O_____P_POP_O_ jtwc_sh SH301972 -6.40000 154.600 5 -1 -6.47455 154.672 1000 -6.52757 154.845 35 993 -6.50000 154.700 TC 30 1001 -6.36236 154.587 1 -6.40000 155.000 TC 25 1001 9 238
1972129S06156 1972 34 SP EA HANNAH 1972-05-08 08:00:00 TS -6.59902 154.444 999 bom main 78 78 P_____O_PPP_P_ SH301972 -6.57996 154.339 5 -1 -6.60000 154.400 999 -6.67658 154.578 36 992 -6.65703 154.416 TC 31 999 -6.54261 154.318 1 -6.55703 154.716 TC 28 999 10 240
1972129S06156 1972 34 SP EA HANNAH 1972-05-08 09:00:00 TS -6.67275 154.300 main 94 94 P_____P_PPP_P_ SH301972 -6.66495 154.207 5 -1 -6.66124 154.236 998 -6.74283 154.440 37 991 -6.72249 154.265 TC 32 999 -6.63032 154.180 1 -6.62249 154.565 TC 30 999 10 244
1972129S06156 1972 34 SP EA HANNAH 1972-05-08 11:00:00 TS -6.81251 154.006 997 bom main 125 125 P_____O_PPO_P_ SH301972 -6.82497 153.939 5 -1 -6.80000 153.900 997 -6.85526 154.151 39 990 -6.84120 153.955 TC 34 997 -6.80000 153.900 1 -6.74120 154.255 TC 33 997 10 244
1972129S06156 1972 34 SP EA HANNAH 1972-05-08 12:00:00 TS -6.88272 153.859 main 141 141 O_____P_OOP_O_ jtwc_sh SH301972 -6.90000 153.800 5 -1 -6.89751 153.759 996 -6.90000 154.000 40 990 -6.90000 153.800 TC 35 997 -6.88150 153.757 1 -6.80000 154.100 TC 35 997 10 243
1972129S06156 1972 34 SP EA HANNAH 1972-05-08 14:00:00 TS -7.02977 153.567 995 bom main 173 173 P_____O_PPP_P_ SH301972 -7.05751 153.508 5 -1 -7.10000 153.500 995 -6.96499 153.684 42 988 -7.04957 153.505 TC 38 994 -7.03461 153.465 1 -6.94416 153.800 TC 38 994 10 244
1972129S06156 1972 34 SP EA HANNAH 1972-05-08 15:00:00 TS -7.09550 153.419 main 196 196 P_____P_PPP_P_ SH301972 -7.12998 153.358 5 -1 -7.17998 153.372 993 -6.98660 153.520 43 987 -7.12243 153.358 TC 40 994 -7.10460 153.316 1 -7.01496 153.650 TC 40 994 10 249
1972129S06156 1972 34 SP EA HANNAH 1972-05-08 17:00:00 TS -7.20582 153.116 991 bom main 229 223 P_____O_PPP_P_ SH301972 -7.25307 153.053 5 -1 -7.30000 153.100 991 -7.01207 153.185 46 985 -7.25042 153.056 TC 43 991 -7.22739 153.015 1 -7.14473 153.350 TC 43 991 10 251
1972129S06156 1972 34 SP EA HANNAH 1972-05-08 18:00:00 TS -7.24897 152.960 main 223 214 O_____P_POP_O_ jtwc_sh SH301972 -7.30000 152.900 5 -1 -7.34666 152.941 990 -7.01755 153.015 47 985 -7.30000 152.900 TC 45 991 -7.27858 152.864 1 -7.20000 153.200 TC 45 991 10 257
1972129S06156 1972 34 SP EA HANNAH 1972-05-08 20:00:00 TS -7.31564 152.643 988 bom main 210 205 P_____O_PPP_P_ SH301972 -7.37872 152.600 5 -1 -7.40000 152.600 988 -7.01806 152.672 50 983 -7.37333 152.569 TC 48 988 -7.35647 152.558 1 -7.30416 152.900 TC 48 988 10 260
1972129S06156 1972 34 SP EA HANNAH 1972-05-08 21:00:00 TS -7.33635 152.484 main 205 189 P_____P_PPP_P_ SH301972 -7.40245 152.450 5 -1 -7.41332 152.433 986 -7.01471 152.502 51 982 -7.39499 152.400 TC 50 987 -7.38157 152.405 1 -7.34495 152.750 TC 50 987 9 266
1972129S06156 1972 34 SP EA HANNAH 1972-05-08 23:00:00 TS -7.34799 152.168 984 bom main 189 176 P_____O_PPO_P_ SH301972 -7.41402 152.150 5 -1 -7.40000 152.100 984 -7.00487 152.165 53 980 -7.40833 152.064 TC 53 985 -7.40000 152.100 1 20 -7.39473 152.450 TC 53 985 10 270
1972129S06156 1972 34 SP EA HANNAH 1972-05-09 00:00:00 TS -7.33678 152.001 main 176 160 O_____P_OOP_O_ jtwc_sh SH301972 -7.40000 152.000 5 -1 -7.37456 151.928 983 -7.00000 152.000 55 980 -7.40000 151.900 TC 55 984 -7.38736 151.942 1 -7.40000 152.300 TC 55 984 10 277
1972129S06156 1972 34 SP EA HANNAH 1972-05-09 02:00:00 TS -7.28844 151.664 981 bom main 160 152 P_____O_PPP_P_ SH301972 -7.33158 151.695 6 -1 -7.30000 151.600 981 -7.00048 151.660 55 980 -7.36786 151.587 TC 56 981 -7.32679 151.625 1 -7.37576 152.000 TC 58 981 10 280
1972129S06156 1972 34 SP EA HANNAH 1972-05-09 03:00:00 TS -7.25287 151.501 main 152 134 P_____P_PPP_P_ SH301972 -7.27998 151.542 7 -1 -7.26664 151.464 980 -6.99910 151.491 55 980 -7.33745 151.435 TC 57 981 -7.28218 151.466 1 -7.34495 151.850 TC 60 981 10 284
1972129S06156 1972 34 SP EA HANNAH 1972-05-09 05:00:00 TS -7.16685 151.185 978 bom main 134 118 P_____O_PPP_P_ SH301972 -7.16048 151.244 9 -1 -7.20000 151.200 978 -6.99482 151.161 55 980 -7.25260 151.142 TC 59 978 -7.17256 151.153 1 -7.25522 151.550 TC 63 978 10 286
1972129S06156 1972 34 SP EA HANNAH 1972-05-09 06:00:00 TS -7.12156 151.031 main 111 85 O_____P_POP_O_ jtwc_sh SH301972 -7.10000 151.100 10 -1 -7.17754 151.036 977 -6.99260 151.002 55 980 -7.20000 151.000 TC 60 978 -7.11087 151.000 1 -7.20000 151.400 TC 65 978 10 286
1972129S06156 1972 34 SP EA HANNAH 1972-05-09 08:00:00 TS -7.02520 150.689 976 bom main 85 81 P_____O_PPP_P_ SH301972 -6.99212 150.815 10 -1 -7.10000 150.700 976 -6.98974 150.702 55 980 -7.07702 150.715 TC 61 976 -6.98202 150.705 1 -7.07706 151.078 TC 66 976 10 288
1972129S06156 1972 34 SP EA HANNAH 1972-05-09 09:00:00 TS -6.97345 150.559 main 81 67 P_____P_PPP_P_ SH301972 -6.93913 150.679 10 -1 -7.00492 150.559 975 -6.98978 150.563 55 980 -7.00748 150.577 TC 62 976 -6.91819 150.565 1 -7.00753 150.920 TC 67 976 7 296
1972129S06156 1972 34 SP EA HANNAH 1972-05-09 11:00:00 TS -6.86641 150.355 974 bom main 67 56 P_____O_PPO_P_ SH301972 -6.84173 150.420 10 -1 -6.80000 150.300 974 -6.99456 150.311 55 980 -6.86620 150.319 TC 64 974 -6.80000 150.300 4 -6.86622 150.627 TC 69 974 6 297
1972129S06156 1972 34 SP EA HANNAH 1972-05-09 12:00:00 TS -6.83112 150.281 main 56 56 O_____P_OO__O_ jtwc_sh SH301972 -6.80000 150.300 10 -1 -6.75630 150.161 973 -7.00000 150.200 55 980 -6.80000 150.200 TC 65 974 4 -6.80000 150.500 TC 70 974 6 288
1972129S06156 1972 34 SP EA HANNAH 1972-05-09 14:00:00 TS -6.76630 150.046 973 bom main 56 44 P_____O_PP__P_ SH301972 -6.74668 150.075 -1 -6.70000 149.900 973 -7.01910 150.015 55 980 -6.67035 149.968 TC 66 973 4 -6.67574 150.302 TC 70 973 7 288
1972129S06156 1972 34 SP EA HANNAH 1972-05-09 15:00:00 TS -6.72488 149.950 main 44 44 P_____P_PP__P_ SH301972 -6.73121 149.973 -1 -6.63580 149.781 972 -7.03132 149.938 55 980 -6.61248 149.863 TC 67 973 4 -6.61993 150.220 TC 70 973 6 294
1972129S06156 1972 34 SP EA HANNAH 1972-05-09 17:00:00 TS -6.65381 149.790 972 bom main 44 33 P_____O_PP__P_ SH301972 -6.72151 149.788 -1 -6.50000 149.600 972 -7.06049 149.808 55 980 -6.52453 149.678 TC 69 972 4 -6.53022 150.073 TC 70 972 5 293
1972129S06156 1972 34 SP EA HANNAH 1972-05-09 18:00:00 TS -6.63128 149.727 main 33 33 P_____P_PO__O_ SH301972 -6.72682 149.705 -1 -6.44789 149.556 972 -7.07721 149.753 55 980 -6.50000 149.600 TC 70 972 4 -6.50000 150.000 TC 70 972 4 284
1972129S06156 1972 34 SP EA HANNAH 1972-05-09 20:00:00 TS -6.60815 149.606 972 bom main 33 33 P_____O_PP__P_ SH301972 -6.75659 149.558 -1 -6.40000 149.500 972 -7.11435 149.658 55 980 -6.47455 149.460 TC 70 971 4 -6.44372 149.806 TC 71 971 4 275
1972129S06156 1972 34 SP EA HANNAH 1972-05-09 21:00:00 TS -6.61490 149.542 main 35 35 P_____P_PP__P_ SH301972 -6.78059 149.494 -1 -6.41006 149.435 971 -7.13452 149.616 55 980 -6.48248 149.405 TC 70 971 4 -6.43252 149.713 TC 72 971 4 251
1972129S06156 1972 34 SP EA HANNAH 1972-05-09 23:00:00 TS -6.66991 149.429 971 bom main 49 49 P_____O_PP__P_ SH301972 -6.84565 149.381 -1 -6.50000 149.300 971 -7.17747 149.538 55 980 -6.54428 149.325 TC 70 971 4 -6.45788 149.555 TC 74 971 4 235
1972129S06156 1972 34 SP EA HANNAH 1972-05-10 00:00:00 TS -6.71514 149.392 main 49 49 P_____P_OO__O_ SH301972 -6.88624 149.334 -1 -6.56056 149.269 970 -7.20000 149.500 55 980 -6.60000 149.300 TC 70 971 4 -6.50000 149.500 TC 75 971 4 201
1972129S06156 1972 34 SP EA HANNAH 1972-05-10 03:00:00 TS -6.91494 149.336 main 74 74 P_____P_PP__P_ SH301972 -7.03747 149.222 -1 -6.83291 149.269 970 -7.23938 149.320 55 980 -6.84750 149.285 TC 70 970 4 -6.73998 149.470 TC 75 970 5 190
1972129S06156 1972 34 SP EA HANNAH 1972-05-10 06:00:00 TS -7.19750 149.315 970 bom main 106 106 P_____O_PO__O_ SH301972 -7.22800 149.156 -1 -7.20000 149.300 970 -7.29000 149.160 55 980 -7.20000 149.300 TC 70 970 4 -7.10000 149.500 TC 75 970 6 188
1972129S06156 1972 34 SP EA HANNAH 1972-05-10 09:00:00 TS -7.52040 149.247 main 141 133 P_____P_PP__P_ SH301972 -7.45150 149.131 -1 -7.61752 149.241 970 -7.37061 149.045 55 980 -7.59348 149.251 TC 70 970 4 -7.50000 149.450 TC 75 970 7 190
1972129S06156 1972 34 SP EA HANNAH 1972-05-10 11:00:00 TS -7.74775 149.208 970 bom main 133 129 P_____O_PP__P_ SH301972 -7.61570 149.136 -1 -7.90000 149.200 970 -7.45029 149.006 55 980 -7.86788 149.214 TC 70 970 4 -7.77284 149.414 TC 75 970 7 189
1972129S06156 1972 34 SP EA HANNAH 1972-05-10 12:00:00 TS -7.85648 149.195 main 125 110 P_____P_OO__O_ SH301972 -7.70165 149.144 -1 -8.02590 149.182 970 -7.50000 149.000 55 980 -8.00000 149.200 TC 70 970 4 -7.90000 149.400 TC 75 970 6 181
1972129S06156 1972 34 SP EA HANNAH 1972-05-10 15:00:00 TS -8.15310 149.191 main 100 78 P_____P_PP__P_ SH301972 -7.97211 149.192 -1 -8.36861 149.136 970 -7.67942 149.065 57 977 -8.34939 149.172 TC 70 970 4 -8.21500 149.392 TC 75 970 6 178
1972129S06156 1972 34 SP EA HANNAH 1972-05-10 18:00:00 TS -8.43476 149.222 main 78 44 P_____P_PP__O_ SH301972 -8.25654 149.270 -1 -8.66767 149.119 970 -7.91009 149.197 60 975 -8.66128 149.172 TC 70 970 4 -8.50000 149.400 TC 75 970 6 172
1972129S06156 1972 34 SP EA HANNAH 1972-05-10 21:00:00 TS -8.71942 149.271 main 44 22 P_____P_PP__P_ SH301972 -8.54856 149.377 -1 -8.93446 149.148 970 -8.18570 149.356 62 972 -8.94254 149.211 TC 70 970 4 -8.81498 149.370 TC 77 970 6 168
1972129S06156 1972 34 SP EA HANNAH 1972-05-10 23:00:00 TS -8.90478 149.324 970 bom main 22 11 P_____O_PP__P_ SH301972 -8.74433 149.461 -1 -9.10000 149.200 970 4 -8.39132 149.456 64 970 -9.11640 149.264 TC 70 970 4 -9.01141 149.377 TC 79 970 6 162
1972129S06156 1972 34 SP EA HANNAH 1972-05-11 00:00:00 TS -8.99662 149.356 main 15 10 P_____P_OO__O_ SH301972 -8.84183 149.507 -1 -9.18646 149.225 972 -8.50000 149.500 65 970 -9.20000 149.300 TC 70 970 4 -9.10000 149.400 TC 80 970 6 155
1972129S06156 1972 34 SP EA HANNAH 1972-05-11 03:00:00 TS -9.24095 149.483 main 24 15 P_____P_PP__P_ SH301972 -9.12996 149.658 -1 -9.42992 149.338 978 -8.78632 149.576 66 968 -9.44003 149.446 TC 62 976 4 -9.30752 149.570 TC 70 976 6 150
1972129S06156 1972 34 SP EA HANNAH 1972-05-11 06:00:00 TS -9.48409 149.647 main 15 0 P_____P_PP__O_ SH301972 -9.40660 149.826 -1 -9.65399 149.518 984 -9.11512 149.630 67 967 -9.66725 149.638 TC 55 982 4 -9.50000 149.800 TC 60 982 6 146
1972129S06156 1972 34 SP EA HANNAH 1972-05-11 09:00:00 TS -9.74604 149.825 main 0 0 P_____P_PP__P_ SH301972 -9.66540 150.008 -1 -9.86445 149.777 990 -9.51134 149.669 68 966 -9.88584 149.861 TC 47 988 4 -9.75749 150.000 TC 50 988 6 146
1972129S06156 1972 34 SP EA HANNAH 1972-05-11 11:00:00 TS -9.92775 149.949 995 bom main 10 10 P_____O_PP__P_ SH301972 -9.82488 150.135 -1 -10.0000 150.000 995 -9.82530 149.690 69 965 -10.0288 150.020 TC 42 992 4 -9.92546 150.133 TC 43 992 6 140
1972129S06156 1972 34 SP EA HANNAH 1972-05-11 12:00:00 TS -9.99264 150.032 main 10 10 O_____P_OO__O_ jtwc_sh SH301972 -9.90000 150.200 15 -1 -10.0670 150.127 996 -10.0000 149.700 70 965 -10.1000 150.100 TC 40 995 4 -10.0000 150.200 TC 40 995 5 147
1972129S06156 1972 34 SP EA HANNAH 1972-05-11 14:00:00 TS -10.1522 150.097 1000 bom main 0 0 P_____O_P___P_ SH301972 -10.0262 150.333 15 -1 -10.2000 150.400 1000 -10.3868 149.718 64 969 TC 4 -10.1049 150.339 TC 38 5 155
1972129S06156 1972 34 SP EA HANNAH 1972-05-11 15:00:00 TS -10.2197 150.136 main 0 0 P_______P___P_ SH301972 -10.0909 150.402 15 -1 -10.5971 149.727 62 971 TC 4 -10.1500 150.408 TC 37 6 141
1972129S06156 1972 34 SP EA HANNAH 1972-05-11 18:00:00 TS -10.4869 150.372 main 0 0 O_______P___O_ jtwc_sh SH301972 -10.3000 150.600 15 -1 -11.2825 149.752 55 977 TC 4 -10.3000 150.600 TC 35 7 140
1972129S06156 1972 34 SP EA HANNAH 1972-05-11 21:00:00 TS -10.7517 150.585 main 22 22 P_______P___P_ SH301972 -10.5200 150.758 17 -1 -12.0266 149.776 47 983 TC 4 -10.5125 150.758 TC 32 7 139
1972129S06156 1972 34 SP EA HANNAH 1972-05-11 23:00:00 TS -10.9019 150.745 main 33 33 P_______P_O_P_ SH301972 -10.6969 150.853 19 -1 -12.5408 149.792 42 987 TC -10.7000 150.900 2 -10.6943 150.853 TC 30 7 127
1972129S06156 1972 34 SP EA HANNAH 1972-05-12 00:00:00 TS -10.9471 150.848 main 35 35 O_______O_P_O_ jtwc_sh SH301972 -10.8000 150.900 20 -1 -12.8000 149.800 40 990 -10.8434 150.941 2 -10.8000 150.900 TC 30 7 129
1972129S06156 1972 34 SP EA HANNAH 1972-05-12 03:00:00 TS -11.1886 151.102 main 80 80 P_________P_P_ SH301972 -11.1725 151.047 20 -1 -11.2834 151.053 2 -11.1750 151.047 TC 25 8 151
1972129S06156 1972 34 SP EA HANNAH 1972-05-12 06:00:00 TS -11.6338 151.237 main 124 124 O_________P_O_ jtwc_sh SH301972 -11.6000 151.200 20 -1 -11.7345 151.151 2 -11.6000 151.200 TC 20 10 169
1972129S06156 1972 34 SP EA HANNAH 1972-05-12 09:00:00 NR -12.1613 151.300 main 190 190 __________P___ SH301972 -1 -12.1927 151.242 2 TC 11 177
1972129S06156 1972 34 SP EA HANNAH 1972-05-12 11:00:00 NR -12.5000 151.300 main 222 __________O___ SH301972 -1 -12.5000 151.300 1 TC 10 0

Digital Typhoon Data and Search

About IBTrACS Database

This database is a web-friendly format of International Best Track Archive for Climate Stewardship (IBTrACS), a global best track data archive curated by NOAA dating back to 1842.

Updated: 2021-10-08